Guanare, Venezuela
Current Conditions -  °F | °C
As of 2:00 PM on Friday 21 Nov 2014 (Local Time) from SVBM Reporting Station
Scattered Clouds Scattered Clouds  
Wind Chill: 88°   Ceiling: Unl
Heat Index: 91°   Visibility: 6mi
Dew Point: 68°   Wind: 10mph
Humidity: 52%   Direction: 110°ESE
Pressure: 29.97"   Gusts: NA
Location:  9.05°N, 69.75°W
Report Text: SVBM 211800Z 11009KT 9999 SCT016 31/20 Q1015
Loading
Personal Weather Stations






























Interactive Weather Map New forecast layout! Learn more

10-Day Weather Forecast

Advertisements
Track Severe Weather on mobile